Time;durP1;ratioP1;P1;durP2;ratioP2;P2;SDS_P1;SDS_P2;PMS_P1;PMS_P2;Temp;Humidity;BMP_temperature;BMP_pressure;BME280_temperature;BME280_humidity;BME280_pressure;Samples;Min_cycle;Max_cycle;Signal;HPM_P1;HPM_P2
2022/05/06 00:01:38;;;;;;;8.30;3.45;;;13.30;99.90;;;;;;5096208;28;20202;-72
2022/05/06 00:04:05;;;;;;;7.25;4.07;;;13.30;99.90;;;;;;5096575;28;20202;-72
2022/05/06 00:06:31;;;;;;;8.77;4.18;;;13.20;99.90;;;;;;5087562;28;20704;-72
2022/05/06 00:08:57;;;;;;;6.43;3.58;;;13.20;99.90;;;;;;5077730;28;20705;-73
2022/05/06 00:11:23;;;;;;;6.28;4.00;;;13.20;99.90;;;;;;5077952;28;20213;-72
2022/05/06 00:13:52;;;;;;;6.73;3.73;;;13.10;99.90;;;;;;5095408;28;20202;-73
2022/05/06 00:16:21;;;;;;;10.75;3.95;;;13.10;99.90;;;;;;5095873;28;20201;-73
2022/05/06 00:18:47;;;;;;;8.82;4.00;;;13.10;99.90;;;;;;5096048;28;20198;-73
2022/05/06 00:21:13;;;;;;;6.13;3.93;;;13.00;99.90;;;;;;5095979;28;20716;-72
2022/05/06 00:23:38;;;;;;;4.90;3.50;;;13.00;99.90;;;;;;5096173;28;20183;-73
2022/05/06 00:26:04;;;;;;;6.77;4.20;;;13.00;99.90;;;;;;5095978;28;20214;-72
2022/05/06 00:28:30;;;;;;;6.93;3.43;;;13.00;99.90;;;;;;5094990;28;20202;-72
2022/05/06 00:30:56;;;;;;;7.33;4.13;;;13.00;99.90;;;;;;5094864;28;20206;-71
2022/05/06 00:33:24;;;;;;;8.33;3.83;;;13.00;99.90;;;;;;5076232;28;20683;-71
2022/05/06 00:35:59;;;;;;;6.93;3.88;;;13.00;99.90;;;;;;5090328;28;20167;-72
2022/05/06 00:38:26;;;;;;;8.40;4.10;;;13.00;99.90;;;;;;5090485;28;20201;-71
2022/05/06 00:40:52;;;;;;;6.40;3.93;;;13.00;99.90;;;;;;5092268;28;20631;-72
2022/05/06 00:43:19;;;;;;;4.72;4.03;;;13.00;99.90;;;;;;5074474;28;20641;-72
2022/05/06 00:45:52;;;;;;;5.32;4.03;;;13.00;99.90;;;;;;5092380;28;20198;-72
2022/05/06 00:48:19;;;;;;;10.40;3.95;;;13.00;99.90;;;;;;5073657;28;20214;-72
2022/05/06 00:50:45;;;;;;;8.27;3.78;;;13.00;99.90;;;;;;5092930;28;20214;-71
2022/05/06 00:53:12;;;;;;;5.70;3.80;;;13.00;99.90;;;;;;5076532;28;20272;-72
2022/05/06 00:55:37;;;;;;;7.07;4.05;;;13.00;99.90;;;;;;5092602;28;20217;-72
2022/05/06 00:58:03;;;;;;;8.70;4.17;;;12.90;99.90;;;;;;5091183;28;20214;-71
2022/05/06 01:00:29;;;;;;;9.85;4.60;;;12.90;99.90;;;;;;5092072;28;20237;-72
2022/05/06 01:02:55;;;;;;;6.83;4.30;;;12.90;99.90;;;;;;5092412;28;20181;-72
2022/05/06 01:05:22;;;;;;;7.07;4.47;;;12.90;99.90;;;;;;5074001;28;20622;-72
2022/05/06 01:07:49;;;;;;;6.72;4.30;;;12.90;99.90;;;;;;5075684;28;20297;-72
2022/05/06 01:10:16;;;;;;;8.00;4.37;;;12.90;99.90;;;;;;5091517;28;20772;-72
2022/05/06 01:12:42;;;;;;;6.97;4.57;;;12.80;99.90;;;;;;5092247;28;20263;-71
2022/05/06 01:15:22;;;;;;;8.40;4.67;;;12.80;99.90;;;;;;5092037;28;20639;-72
2022/05/06 01:17:48;;;;;;;8.77;4.30;;;12.80;99.90;;;;;;5076030;28;20186;-72
2022/05/06 01:20:18;;;;;;;7.22;4.40;;;12.80;99.90;;;;;;5073145;28;20230;-72
2022/05/06 01:22:46;;;;;;;7.77;4.57;;;12.80;99.90;;;;;;5073295;28;20263;-72
2022/05/06 01:25:12;;;;;;;11.38;5.35;;;12.80;99.90;;;;;;5091755;28;20565;-72
2022/05/06 01:27:50;;;;;;;10.90;4.50;;;12.80;99.90;;;;;;5091859;28;20217;-72
2022/05/06 01:30:37;;;;;;;12.07;5.37;;;12.80;99.90;;;;;;5089996;28;20210;-72
2022/05/06 01:33:06;;;;;;;10.73;4.67;;;12.80;99.90;;;;;;5091713;28;20581;-73
2022/05/06 01:35:46;;;;;;;7.70;4.90;;;12.80;99.90;;;;;;5078003;28;20243;-73
2022/05/06 01:38:32;;;;;;;9.47;4.93;;;12.80;99.90;;;;;;5085624;28;20205;-72
2022/05/06 01:41:01;;;;;;;6.97;4.40;;;12.70;99.90;;;;;;5078212;28;20213;-73
2022/05/06 01:43:35;;;;;;;10.47;5.10;;;12.70;99.90;;;;;;5091288;28;20563;-72
2022/05/06 01:46:02;;;;;;;4.97;4.17;;;12.70;99.90;;;;;;5091519;28;20203;-72
2022/05/06 01:48:28;;;;;;;9.17;5.03;;;12.60;99.90;;;;;;5072167;28;20206;-72
2022/05/06 01:50:55;;;;;;;9.17;5.27;;;12.60;99.90;;;;;;5091240;28;20174;-72
2022/05/06 01:53:21;;;;;;;6.20;4.50;;;12.60;99.90;;;;;;5090476;28;20177;-72
2022/05/06 01:55:47;;;;;;;11.67;4.87;;;12.60;99.90;;;;;;5091135;28;20202;-72
2022/05/06 01:58:12;;;;;;;10.57;4.60;;;12.60;99.90;;;;;;5072103;28;20229;-73
2022/05/06 02:00:38;;;;;;;9.03;4.80;;;12.60;99.90;;;;;;5091093;28;20722;-73
2022/05/06 02:03:04;;;;;;;6.90;4.77;;;12.50;99.90;;;;;;5091626;28;20578;-73
2022/05/06 02:05:30;;;;;;;7.30;5.00;;;12.50;99.90;;;;;;5089991;28;20254;-72
2022/05/06 02:07:55;;;;;;;9.10;4.77;;;12.50;99.90;;;;;;5084004;28;20285;-72
2022/05/06 02:10:22;;;;;;;7.90;4.80;;;12.50;99.90;;;;;;5090585;28;20198;-73
2022/05/06 02:12:48;;;;;;;10.03;4.97;;;12.50;99.90;;;;;;5091106;28;20689;-72
2022/05/06 02:15:15;;;;;;;8.77;5.10;;;12.50;99.90;;;;;;5090752;28;20202;-73
2022/05/06 02:17:41;;;;;;;10.20;5.20;;;12.50;99.90;;;;;;5091251;28;20222;-73
2022/05/06 02:20:09;;;;;;;8.20;5.13;;;12.40;99.90;;;;;;5072531;28;20205;-73
2022/05/06 02:22:36;;;;;;;9.63;5.23;;;12.30;99.90;;;;;;5090679;28;20233;-73
2022/05/06 02:25:09;;;;;;;7.83;4.90;;;12.30;99.90;;;;;;5091183;28;20200;-73
2022/05/06 02:27:35;;;;;;;10.97;5.27;;;12.30;99.90;;;;;;5070752;28;20206;-73
2022/05/06 02:35:29;;;;;;;11.37;5.23;;;12.20;99.90;;;;;;5089847;28;20209;-73
2022/05/06 02:37:55;;;;;;;10.53;6.30;;;12.10;99.90;;;;;;5082234;28;20214;-73
2022/05/06 02:40:20;;;;;;;6.73;5.20;;;12.10;99.90;;;;;;5072565;28;20288;-72
2022/05/06 02:42:46;;;;;;;9.80;4.80;;;12.10;99.90;;;;;;5074458;28;20202;-72
2022/05/06 02:45:12;;;;;;;9.13;5.33;;;12.10;99.90;;;;;;5087049;28;20206;-73
2022/05/06 02:47:38;;;;;;;10.90;5.53;;;12.10;99.90;;;;;;5076640;28;20304;-73
2022/05/06 02:50:04;;;;;;;10.37;6.47;;;12.10;99.90;;;;;;5090038;28;20210;-72
2022/05/06 02:52:30;;;;;;;8.33;5.60;;;12.00;99.90;;;;;;5090436;28;20206;-73
2022/05/06 02:54:55;;;;;;;7.50;5.47;;;12.00;99.90;;;;;;5090573;28;20206;-72
2022/05/06 02:57:21;;;;;;;9.97;5.53;;;12.10;99.90;;;;;;5090183;28;20226;-72
2022/05/06 02:59:46;;;;;;;9.37;5.27;;;12.00;99.90;;;;;;5090012;28;20663;-73
2022/05/06 03:02:12;;;;;;;11.20;6.23;;;12.10;99.90;;;;;;5072456;28;20209;-72
2022/05/06 03:04:38;;;;;;;12.87;6.53;;;12.10;99.90;;;;;;5090414;28;20210;-72
2022/05/06 03:07:06;;;;;;;11.90;6.33;;;12.10;99.90;;;;;;5090420;28;20217;-72
2022/05/06 03:09:33;;;;;;;9.47;6.70;;;12.10;99.90;;;;;;5089534;28;20467;-72
2022/05/06 03:11:59;;;;;;;12.63;6.00;;;12.00;99.90;;;;;;5090420;28;20170;-72
2022/05/06 03:14:25;;;;;;;8.27;5.57;;;12.10;99.90;;;;;;5090721;28;20182;-72
2022/05/06 03:16:50;;;;;;;7.73;5.63;;;12.10;99.90;;;;;;5082131;28;20210;-73
2022/05/06 03:19:16;;;;;;;15.07;7.10;;;12.00;99.90;;;;;;5089661;28;20209;-72
2022/05/06 03:21:43;;;;;;;9.37;6.10;;;12.00;99.90;;;;;;5078632;28;20206;-73
2022/05/06 03:24:08;;;;;;;9.93;6.17;;;12.00;99.90;;;;;;5090270;28;20214;-73
2022/05/06 03:26:34;;;;;;;11.30;6.33;;;11.90;99.90;;;;;;5092366;28;20218;-73
2022/05/06 03:28:59;;;;;;;10.90;6.03;;;11.90;99.90;;;;;;5093122;28;20206;-73
2022/05/06 03:31:28;;;;;;;13.03;6.43;;;11.90;99.90;;;;;;5075538;28;20612;-73
2022/05/06 03:33:54;;;;;;;11.13;6.27;;;12.00;99.90;;;;;;5093708;28;20254;-72
2022/05/06 03:36:21;;;;;;;13.90;6.67;;;11.90;99.90;;;;;;5093719;28;20210;-72
2022/05/06 03:38:46;;;;;;;12.23;6.80;;;12.00;99.90;;;;;;5077292;28;20173;-72
2022/05/06 03:41:12;;;;;;;12.80;7.17;;;12.00;99.90;;;;;;5093798;28;20206;-72
2022/05/06 03:43:37;;;;;;;16.17;7.50;;;12.10;99.90;;;;;;5093290;28;20202;-72
2022/05/06 03:46:02;;;;;;;11.87;6.40;;;12.10;99.90;;;;;;5088304;28;20206;-72
2022/05/06 03:48:28;;;;;;;15.17;7.10;;;12.10;99.90;;;;;;5089680;28;20217;-72
2022/05/06 03:53:38;;;;;;;12.20;6.60;;;12.20;99.90;;;;;;5091320;28;20231;-71
2022/05/06 03:56:05;;;;;;;12.73;7.07;;;12.20;99.90;;;;;;5087490;28;20202;-72
2022/05/06 03:58:30;;;;;;;12.23;7.10;;;12.60;99.90;;;;;;5092020;28;20214;-72
2022/05/06 04:00:56;;;;;;;10.20;6.70;;;12.60;99.90;;;;;;5075107;28;20821;-71
2022/05/06 04:03:22;;;;;;;11.80;7.00;;;13.60;99.90;;;;;;5074910;28;20212;-71
2022/05/06 04:05:47;;;;;;;10.10;6.85;;;15.00;99.90;;;;;;5094024;28;20544;-72
2022/05/06 04:08:13;;;;;;;11.85;6.47;;;15.90;99.90;;;;;;5092921;28;20201;-71
2022/05/06 04:10:38;;;;;;;10.38;6.05;;;16.70;99.90;;;;;;5074350;28;20199;-71
2022/05/06 04:13:04;;;;;;;11.63;6.43;;;17.20;99.90;;;;;;5093145;28;20199;-73
2022/05/06 04:15:32;;;;;;;13.90;6.80;;;16.40;99.90;;;;;;5074017;28;20632;-72
2022/05/06 04:17:58;;;;;;;10.45;5.95;;;15.50;99.90;;;;;;5067208;28;20202;-72
2022/05/06 04:25:52;;;;;;;11.43;6.53;;;14.60;99.90;;;;;;5078065;28;20205;-72
2022/05/06 04:28:17;;;;;;;9.05;6.20;;;14.60;99.90;;;;;;5092240;28;20202;-73
2022/05/06 04:30:43;;;;;;;11.07;5.82;;;14.60;99.90;;;;;;5092786;28;20277;-73
2022/05/06 04:33:08;;;;;;;10.40;6.65;;;14.70;99.90;;;;;;5092959;28;20261;-72
2022/05/06 04:35:34;;;;;;;14.15;6.47;;;16.50;99.90;;;;;;5092805;28;20552;-72
2022/05/06 04:38:00;;;;;;;12.38;6.82;;;18.60;99.90;;;;;;5091454;28;20206;-72
2022/05/06 04:40:26;;;;;;;13.68;6.55;;;20.10;99.90;;;;;;5092070;28;20214;-73
2022/05/06 04:42:51;;;;;;;18.05;6.30;;;21.00;99.90;;;;;;5092316;28;20204;-72
2022/05/06 04:45:17;;;;;;;12.40;5.97;;;21.80;99.90;;;;;;5092231;28;20654;-73
2022/05/06 04:47:42;;;;;;;10.57;6.20;;;22.30;99.90;;;;;;5081663;28;20205;-73
2022/05/06 04:50:08;;;;;;;9.50;5.68;;;23.10;99.90;;;;;;5073582;28;20222;-73
2022/05/06 04:52:34;;;;;;;10.57;5.97;;;23.10;99.90;;;;;;5073891;28;20234;-73
2022/05/06 04:54:59;;;;;;;9.50;5.82;;;23.60;99.90;;;;;;5092218;28;20204;-73
2022/05/06 04:57:25;;;;;;;8.95;5.38;;;24.20;99.90;;;;;;5073609;28;20218;-72
2022/05/06 04:59:50;;;;;;;8.27;5.75;;;25.50;99.90;;;;;;5103387;22;20580;-71
2022/05/06 05:02:17;;;;;;;7.70;5.45;;;26.10;99.90;;;;;;5092451;28;20199;-72
2022/05/06 05:04:43;;;;;;;8.13;4.90;;;26.30;99.90;;;;;;5089656;28;20210;-70
2022/05/06 05:07:09;;;;;;;7.75;5.32;;;26.30;99.50;;;;;;5067226;28;20199;-70
2022/05/06 05:09:34;;;;;;;8.02;4.88;;;26.90;97.40;;;;;;5071103;28;20569;-71
2022/05/06 05:12:00;;;;;;;9.45;5.30;;;27.30;96.10;;;;;;5071892;28;20219;-71
2022/05/06 05:14:25;;;;;;;8.43;5.63;;;28.00;94.70;;;;;;5072837;28;20179;-71
2022/05/06 05:16:51;;;;;;;8.35;5.53;;;27.80;93.50;;;;;;5072062;28;20252;-68
2022/05/06 05:19:17;;;;;;;7.40;5.15;;;27.70;92.70;;;;;;5071196;28;20209;-71
2022/05/06 05:21:42;;;;;;;8.07;5.32;;;27.60;92.40;;;;;;5053993;28;20210;-71
2022/05/06 05:24:08;;;;;;;8.73;5.57;;;27.60;92.10;;;;;;5072222;28;20250;-71
2022/05/06 05:26:34;;;;;;;8.20;5.65;;;27.70;92.20;;;;;;5072445;28;20179;-71
2022/05/06 05:29:00;;;;;;;7.55;5.32;;;28.40;91.30;;;;;;5071478;28;20290;-71
2022/05/06 05:31:26;;;;;;;7.93;5.38;;;29.30;90.10;;;;;;5052884;28;20233;-71
2022/05/06 05:33:52;;;;;;;7.57;4.68;;;29.50;87.00;;;;;;5071824;28;20210;-72
2022/05/06 05:36:18;;;;;;;9.82;4.80;;;29.10;86.50;;;;;;5071522;28;20214;-71
2022/05/06 05:38:44;;;;;;;11.38;5.53;;;28.60;87.50;;;;;;5071243;28;20694;-72
2022/05/06 05:41:09;;;;;;;9.07;5.80;;;28.40;86.70;;;;;;5071144;28;20219;-71
2022/05/06 05:49:03;;;;;;;9.27;5.55;;;28.50;86.90;;;;;;5064504;28;20232;-72
2022/05/06 05:51:29;;;;;;;8.73;5.90;;;29.70;84.70;;;;;;5045938;28;20684;-72
2022/05/06 05:53:54;;;;;;;7.30;5.38;;;30.30;82.10;;;;;;5072491;28;20190;-71
2022/05/06 05:56:20;;;;;;;7.72;4.90;;;29.80;81.90;;;;;;5073110;28;20197;-71
2022/05/06 05:58:46;;;;;;;9.20;5.15;;;29.60;81.30;;;;;;5079234;28;20206;-72
2022/05/06 06:01:15;;;;;;;6.68;5.15;;;30.00;80.30;;;;;;5072133;28;20287;-75
2022/05/06 06:03:41;;;;;;;9.25;5.15;;;29.90;79.80;;;;;;5071444;28;20343;-73
2022/05/06 06:06:06;;;;;;;11.63;5.18;;;29.20;80.50;;;;;;5071628;28;20595;-73
2022/05/06 06:08:32;;;;;;;8.40;4.82;;;29.10;80.10;;;;;;5052608;28;20217;-71
2022/05/06 06:11:01;;;;;;;7.80;4.57;;;29.30;79.60;;;;;;5071560;28;20694;-72
2022/05/06 06:13:27;;;;;;;12.10;4.55;;;28.60;79.40;;;;;;5071042;28;20216;-72
2022/05/06 06:15:53;;;;;;;5.00;4.15;;;28.70;80.10;;;;;;5071433;28;20206;-72
2022/05/06 06:18:23;;;;;;;7.88;4.40;;;29.00;79.70;;;;;;5052605;28;20224;-72
2022/05/06 06:20:49;;;;;;;8.45;4.47;;;29.20;79.10;;;;;;5058085;28;20206;-71
2022/05/06 06:23:14;;;;;;;6.55;3.67;;;29.80;78.30;;;;;;5071123;28;20584;-71
2022/05/06 06:25:40;;;;;;;6.82;3.90;;;30.60;75.50;;;;;;5052594;28;20249;-71
2022/05/06 06:28:06;;;;;;;5.40;3.33;;;31.00;73.50;;;;;;5069915;28;20202;-70
2022/05/06 06:30:32;;;;;;;6.82;3.22;;;30.90;72.50;;;;;;5069099;28;20593;-70
2022/05/06 06:32:57;;;;;;;4.72;3.08;;;31.00;72.00;;;;;;5070648;28;20241;-71
2022/05/06 06:35:23;;;;;;;7.95;3.20;;;31.70;69.70;;;;;;5062744;28;20174;-71
2022/05/06 06:37:49;;;;;;;5.30;2.90;;;31.30;68.80;;;;;;5066784;28;20203;-71
2022/05/06 06:40:14;;;;;;;4.65;3.00;;;32.20;67.90;;;;;;5071384;28;20210;-71
2022/05/06 06:42:41;;;;;;;5.38;3.00;;;31.90;68.00;;;;;;5070786;28;20207;-75
2022/05/06 06:45:07;;;;;;;4.63;2.88;;;32.40;67.40;;;;;;5060654;28;20591;-75
2022/05/06 06:47:33;;;;;;;5.45;3.00;;;32.70;66.90;;;;;;5070649;28;20254;-75
2022/05/06 06:49:59;;;;;;;4.53;3.30;;;33.00;65.40;;;;;;5060437;28;20698;-78
2022/05/06 06:52:24;;;;;;;6.07;2.90;;;33.60;64.70;;;;;;5079241;28;20201;-77
2022/05/06 06:54:50;;;;;;;4.97;2.88;;;32.20;64.70;;;;;;5070185;28;20199;-74
2022/05/06 06:57:15;;;;;;;7.65;3.30;;;31.50;66.30;;;;;;5071093;28;20604;-75
2022/05/06 06:59:41;;;;;;;4.88;2.85;;;31.40;66.70;;;;;;5053618;28;20264;-72
2022/05/06 07:02:06;;;;;;;4.78;3.30;;;30.90;67.00;;;;;;5083367;28;20241;-74
2022/05/06 07:04:32;;;;;;;5.40;3.00;;;31.20;67.00;;;;;;5074366;28;20202;-73
2022/05/06 07:12:26;;;;;;;7.93;3.33;;;31.00;66.70;;;;;;5083384;28;20280;-72
2022/05/06 07:14:52;;;;;;;4.60;3.45;;;30.90;67.20;;;;;;5074312;28;20162;-76
2022/05/06 07:17:17;;;;;;;5.50;4.20;;;30.70;67.30;;;;;;5082282;28;20241;-76
2022/05/06 07:19:43;;;;;;;5.13;4.10;;;31.20;67.40;;;;;;5073344;28;20741;-74
2022/05/06 07:22:08;;;;;;;7.47;5.00;;;31.50;66.40;;;;;;5080629;28;20200;-77
2022/05/06 07:24:34;;;;;;;7.28;5.18;;;31.60;65.70;;;;;;5076188;28;20253;-73
2022/05/06 07:27:00;;;;;;;10.20;5.28;;;31.50;66.00;;;;;;5078708;28;20178;-75
2022/05/06 07:29:25;;;;;;;17.63;15.80;;;31.30;66.40;;;;;;5085604;28;20194;-74
2022/05/06 07:31:51;;;;;;;6.80;5.25;;;32.00;65.90;;;;;;5092741;28;20242;-75
2022/05/06 07:34:17;;;;;;;9.13;4.55;;;31.60;66.30;;;;;;5076318;28;20205;-76
2022/05/06 07:36:43;;;;;;;8.70;5.53;;;31.40;67.40;;;;;;5059705;28;20197;-75
2022/05/06 07:39:13;;;;;;;8.57;5.32;;;32.00;66.20;;;;;;5078338;28;20265;-74
2022/05/06 07:41:39;;;;;;;8.05;6.47;;;32.20;66.40;;;;;;5084259;28;20304;-76
2022/05/06 07:44:05;;;;;;;8.15;6.35;;;31.60;66.70;;;;;;5055520;28;20284;-77
2022/05/06 07:46:32;;;;;;;7.10;5.28;;;31.50;66.60;;;;;;5073535;28;20212;-76
2022/05/06 07:48:58;;;;;;;7.88;5.80;;;32.10;66.30;;;;;;5072437;28;20630;-74
2022/05/06 07:51:23;;;;;;;11.30;5.90;;;33.00;65.40;;;;;;5073114;28;20236;-73
2022/05/06 07:53:51;;;;;;;8.02;5.85;;;31.80;65.40;;;;;;5056266;28;20170;-76
2022/05/06 07:56:18;;;;;;;8.27;6.30;;;31.00;67.30;;;;;;5073160;28;20211;-74
2022/05/06 07:58:43;;;;;;;7.20;5.90;;;31.20;66.50;;;;;;5072155;28;20226;-73
2022/05/06 08:01:11;;;;;;;7.20;5.70;;;30.80;68.00;;;;;;5081236;28;20218;-74
2022/05/06 08:06:21;;;;;;;7.03;4.95;;;31.10;67.60;;;;;;5076829;28;20228;-73
2022/05/06 08:08:46;;;;;;;16.40;12.30;;;31.30;68.10;;;;;;5081198;28;20194;-75
2022/05/06 08:11:12;;;;;;;17.90;13.15;;;32.10;67.40;;;;;;5073624;28;20671;-73
2022/05/06 08:13:38;;;;;;;13.25;10.95;;;32.80;66.50;;;;;;5076874;28;20202;-75
2022/05/06 08:16:03;;;;;;;8.48;6.80;;;32.40;66.70;;;;;;5079829;28;20308;-75
2022/05/06 08:18:29;;;;;;;8.05;5.88;;;32.20;66.50;;;;;;5073094;28;20263;-74
2022/05/06 08:20:54;;;;;;;8.52;5.78;;;32.10;66.10;;;;;;5073515;28;20255;-75
2022/05/06 08:23:21;;;;;;;11.43;6.50;;;31.80;67.40;;;;;;5054579;28;20228;-74
2022/05/06 08:25:47;;;;;;;10.25;6.18;;;31.90;67.20;;;;;;5058523;28;20214;-73
2022/05/06 08:28:13;;;;;;;7.45;5.45;;;32.30;66.20;;;;;;5065971;28;20753;-73
2022/05/06 08:30:40;;;;;;;12.73;9.15;;;32.90;65.60;;;;;;5071760;28;20218;-73
2022/05/06 08:33:05;;;;;;;8.52;6.82;;;32.80;65.00;;;;;;5051413;28;20182;-73
2022/05/06 08:35:31;;;;;;;12.88;9.07;;;31.30;66.00;;;;;;5074214;28;20566;-73
2022/05/06 08:37:58;;;;;;;9.68;6.07;;;29.10;68.70;;;;;;5053414;28;20202;-73
2022/05/06 08:40:26;;;;;;;7.55;6.03;;;28.40;72.40;;;;;;5071415;28;20273;-73
2022/05/06 08:42:52;;;;;;;8.27;5.82;;;27.60;74.20;;;;;;5079581;28;20206;-73
2022/05/06 08:50:53;;;;;;;10.68;6.07;;;28.40;75.10;;;;;;5064645;28;20741;-71
2022/05/06 08:53:21;;;;;;;10.20;5.93;;;29.30;73.20;;;;;;5065955;28;20264;-75
2022/05/06 08:55:48;;;;;;;6.45;5.15;;;29.60;72.60;;;;;;5067116;28;20207;-74
2022/05/06 08:58:14;;;;;;;6.15;5.32;;;30.00;70.80;;;;;;5074614;28;20703;-75
2022/05/06 09:00:39;;;;;;;7.18;5.40;;;30.10;70.40;;;;;;5056131;28;20238;-76
2022/05/06 09:03:05;;;;;;;8.45;5.28;;;29.60;70.50;;;;;;5072481;28;20179;-74
2022/05/06 09:05:31;;;;;;;8.95;5.45;;;29.10;71.40;;;;;;5072272;28;20618;-74
2022/05/06 09:08:04;;;;;;;7.90;4.97;;;28.90;72.20;;;;;;5071969;28;20203;-74
2022/05/06 09:10:29;;;;;;;7.18;4.72;;;29.70;71.80;;;;;;5074470;28;20202;-74
2022/05/06 09:13:02;;;;;;;9.48;4.53;;;29.50;71.50;;;;;;5060853;28;20263;-74
2022/05/06 09:18:22;;;;;;;8.70;4.93;;;29.10;72.80;;;;;;5083626;28;20300;-74
2022/05/06 09:20:49;;;;;;;9.77;4.75;;;28.90;72.60;;;;;;5064506;28;20615;-74
2022/05/06 09:23:41;;;;;;;6.53;4.90;;;28.80;72.90;;;;;;5070576;28;20209;-74
2022/05/06 09:26:16;;;;;;;10.02;5.53;;;28.90;73.70;;;;;;5063929;28;20203;-74
2022/05/06 09:28:41;;;;;;;7.38;4.53;;;28.90;74.10;;;;;;5070647;28;20774;-74
2022/05/06 09:31:11;;;;;;;9.43;6.13;;;28.40;73.60;;;;;;5053705;28;20243;-74
2022/05/06 09:33:40;;;;;;;9.45;6.18;;;28.00;74.40;;;;;;5054517;28;20211;-72
2022/05/06 09:36:25;;;;;;;8.02;4.85;;;27.30;75.30;;;;;;5071240;28;20522;-74
2022/05/06 09:39:10;;;;;;;9.10;6.38;;;27.40;76.70;;;;;;5062980;28;20190;-71
2022/05/06 09:41:40;;;;;;;5.25;4.40;;;27.50;77.20;;;;;;5071521;28;20675;-73
2022/05/06 09:44:10;;;;;;;8.88;4.53;;;27.40;76.10;;;;;;5079698;28;20214;-76
2022/05/06 09:46:36;;;;;;;7.32;4.60;;;27.50;76.00;;;;;;5070835;28;20210;-73
2022/05/06 09:49:03;;;;;;;8.13;5.05;;;27.70;75.90;;;;;;5052079;28;20226;-76
2022/05/06 09:51:33;;;;;;;7.88;5.13;;;27.70;75.30;;;;;;5061397;28;20206;-72
2022/05/06 09:54:00;;;;;;;8.95;6.93;;;26.30;76.90;;;;;;5079537;28;20672;-73
2022/05/06 09:56:27;;;;;;;9.95;6.47;;;26.10;79.00;;;;;;5079201;28;20179;-73
2022/05/06 09:58:53;;;;;;;10.27;6.40;;;25.60;80.00;;;;;;5074612;28;20221;-76
2022/05/06 10:01:19;;;;;;;5.63;3.42;;;25.40;81.10;;;;;;5074522;28;20214;-73
2022/05/06 10:03:45;;;;;;;6.97;3.92;;;24.90;80.90;;;;;;5056061;28;20267;-75
2022/05/06 10:06:11;;;;;;;6.15;3.60;;;24.10;81.90;;;;;;5076028;28;20640;-74
2022/05/06 10:08:52;;;;;;;4.80;2.70;;;23.60;83.00;;;;;;5070203;28;20199;-74
2022/05/06 10:11:24;;;;;;;7.25;3.75;;;23.70;84.10;;;;;;5069645;28;20203;-74
2022/05/06 10:13:52;;;;;;;5.45;3.15;;;24.10;83.90;;;;;;5044684;28;20217;-74
2022/05/06 10:16:17;;;;;;;5.50;3.65;;;24.60;83.40;;;;;;5070680;28;20199;-72
2022/05/06 10:18:44;;;;;;;4.13;3.30;;;25.10;82.30;;;;;;5069579;28;20203;-72
2022/05/06 10:21:11;;;;;;;4.53;2.97;;;24.40;81.90;;;;;;5070530;28;20232;-72
2022/05/06 10:23:54;;;;;;;7.20;3.30;;;24.50;83.20;;;;;;5052779;28;20172;-73
2022/05/06 10:26:45;;;;;;;6.93;4.03;;;24.50;84.10;;;;;;5070913;28;20206;-74
2022/05/06 10:32:25;;;;;;;5.03;3.22;;;23.90;86.20;;;;;;5062692;28;20245;-71
2022/05/06 10:35:04;;;;;;;7.82;3.80;;;23.40;87.40;;;;;;5044973;28;20647;-72
2022/05/06 10:37:39;;;;;;;4.97;3.22;;;23.90;87.00;;;;;;5073919;28;20254;-73
2022/05/06 10:40:23;;;;;;;6.75;3.28;;;24.20;86.20;;;;;;5076149;28;20217;-72
2022/05/06 10:42:49;;;;;;;4.50;3.28;;;24.50;84.30;;;;;;5067845;28;20194;-72
2022/05/06 10:45:25;;;;;;;4.47;2.95;;;24.30;83.90;;;;;;5056371;28;20309;-73
2022/05/06 10:47:51;;;;;;;6.30;2.60;;;24.00;84.70;;;;;;5056417;28;20171;-72
2022/05/06 10:50:23;;;;;;;3.97;3.15;;;23.60;85.80;;;;;;5074398;28;20675;-73
2022/05/06 10:52:49;;;;;;;4.45;2.10;;;23.50;86.60;;;;;;5065827;28;20238;-73
2022/05/06 10:55:17;;;;;;;4.43;3.10;;;23.50;87.00;;;;;;5076567;28;20222;-74
2022/05/06 10:57:50;;;;;;;7.88;4.43;;;23.70;87.70;;;;;;5082555;28;20206;-75
2022/05/06 11:00:16;;;;;;;6.65;4.07;;;24.00;87.80;;;;;;5081348;22;20231;-75
2022/05/06 11:02:41;;;;;;;10.60;5.72;;;24.30;85.70;;;;;;5065537;28;20266;-75
2022/05/06 11:05:12;;;;;;;6.93;4.00;;;24.40;85.80;;;;;;5066010;28;20222;-76
2022/05/06 11:07:39;;;;;;;5.65;2.95;;;24.60;85.90;;;;;;5071876;28;20215;-76
2022/05/06 11:10:19;;;;;;;5.60;3.65;;;24.70;85.20;;;;;;5061991;28;20215;-74
2022/05/06 11:12:50;;;;;;;4.70;3.42;;;24.60;85.20;;;;;;5067305;28;20206;-76
2022/05/06 11:15:22;;;;;;;7.75;2.97;;;23.60;86.70;;;;;;5059901;28;20287;-76
2022/05/06 11:17:49;;;;;;;5.88;3.17;;;23.80;88.30;;;;;;5064009;28;20558;-78
2022/05/06 11:20:21;;;;;;;3.22;2.35;;;24.00;86.80;;;;;;5061176;28;20237;-76
2022/05/06 11:22:50;;;;;;;5.35;2.72;;;23.40;85.50;;;;;;5064512;28;20206;-77
2022/05/06 11:25:16;;;;;;;4.13;2.38;;;23.40;90.30;;;;;;5065841;28;20199;-77
2022/05/06 11:27:41;;;;;;;4.25;2.53;;;23.50;90.30;;;;;;5061250;28;20255;-77
2022/05/06 11:30:08;;;;;;;11.30;3.85;;;23.60;89.50;;;;;;5044194;28;20572;-77
2022/05/06 11:32:33;;;;;;;4.25;2.20;;;23.80;92.00;;;;;;5064258;28;20184;-76
2022/05/06 11:35:06;;;;;;;4.40;2.22;;;23.80;86.40;;;;;;5064479;28;20294;-75
2022/05/06 11:37:34;;;;;;;6.75;3.05;;;24.10;89.70;;;;;;5062233;28;20704;-75
2022/05/06 11:42:44;;;;;;;5.45;2.80;;;23.50;91.20;;;;;;5062204;28;20222;-76
2022/05/06 11:48:22;;;;;;;7.10;3.25;;;23.10;91.40;;;;;;5058125;28;20174;-76
2022/05/06 11:50:51;;;;;;;4.70;2.83;;;23.30;95.40;;;;;;5039869;28;20258;-76
2022/05/06 11:53:18;;;;;;;6.63;2.90;;;23.20;93.40;;;;;;5064834;28;20211;-77
2022/05/06 11:55:46;;;;;;;7.68;2.05;;;23.40;92.20;;;;;;5062104;28;20207;-76
2022/05/06 11:58:16;;;;;;;3.38;2.28;;;23.40;92.20;;;;;;5061295;28;20321;-72
2022/05/06 12:00:43;;;;;;;4.43;2.20;;;23.40;91.10;;;;;;5056677;28;20219;-75
2022/05/06 12:03:10;;;;;;;3.80;1.73;;;23.40;89.40;;;;;;5066091;28;20526;-77
2022/05/06 12:05:38;;;;;;;4.95;2.00;;;22.80;88.80;;;;;;5063206;28;20257;-77
2022/05/06 12:08:04;;;;;;;5.03;2.20;;;22.50;90.30;;;;;;5069184;28;20230;-73
2022/05/06 12:10:32;;;;;;;2.85;1.58;;;22.50;90.80;;;;;;5062375;28;20633;-77
2022/05/06 12:13:06;;;;;;;3.88;1.90;;;22.90;90.50;;;;;;5053880;28;20739;-75
2022/05/06 12:15:37;;;;;;;4.60;1.88;;;23.20;90.00;;;;;;5065922;28;20210;-75
2022/05/06 12:18:28;;;;;;;2.58;1.60;;;23.30;89.20;;;;;;5061552;28;20600;-75
2022/05/06 12:20:53;;;;;;;5.25;2.00;;;23.40;88.90;;;;;;5058063;28;20620;-71
2022/05/06 12:23:28;;;;;;;2.72;1.70;;;23.50;89.00;;;;;;5065492;28;20228;-72
2022/05/06 12:25:54;;;;;;;5.25;1.90;;;23.70;88.80;;;;;;5058287;28;20199;-72
2022/05/06 12:28:20;;;;;;;3.67;1.83;;;23.70;88.50;;;;;;5064377;28;20199;-76
2022/05/06 12:30:46;;;;;;;8.05;2.00;;;23.50;89.70;;;;;;5067449;28;20203;-73
2022/05/06 12:33:13;;;;;;;2.92;2.15;;;23.70;90.10;;;;;;5065216;28;20203;-74
2022/05/06 12:36:01;;;;;;;6.70;2.10;;;23.60;89.90;;;;;;5065386;28;20671;-73
2022/05/06 12:38:46;;;;;;;5.72;2.10;;;23.80;90.40;;;;;;5064803;28;20239;-74
2022/05/06 12:41:19;;;;;;;5.80;2.03;;;23.60;90.30;;;;;;5058704;28;20211;-76
2022/05/06 12:43:45;;;;;;;3.60;1.90;;;23.60;90.20;;;;;;5061488;28;20203;-75
2022/05/06 12:46:11;;;;;;;3.90;1.92;;;23.40;90.20;;;;;;5057383;28;20283;-77
2022/05/06 12:51:21;;;;;;;3.30;1.90;;;23.30;89.70;;;;;;5064334;28;20310;-74
2022/05/06 12:53:46;;;;;;;3.38;1.75;;;23.30;89.20;;;;;;5072988;28;20656;-75
2022/05/06 12:56:18;;;;;;;2.97;1.90;;;23.40;89.40;;;;;;5064492;28;20675;-75
2022/05/06 12:58:44;;;;;;;4.18;2.00;;;23.60;89.70;;;;;;5059991;28;20204;-76
2022/05/06 13:01:10;;;;;;;4.22;2.10;;;23.40;88.70;;;;;;5060516;28;20215;-74
2022/05/06 13:03:35;;;;;;;6.13;2.50;;;23.40;89.40;;;;;;5062302;28;20215;-75
2022/05/06 13:06:02;;;;;;;4.13;2.20;;;23.40;89.50;;;;;;5065920;28;20210;-74
2022/05/06 13:08:27;;;;;;;2.85;2.00;;;23.50;88.30;;;;;;5058430;28;20633;-71
2022/05/06 13:10:53;;;;;;;3.63;1.77;;;23.30;88.70;;;;;;5061896;28;20198;-76
2022/05/06 13:13:19;;;;;;;4.00;1.98;;;23.30;88.90;;;;;;5081609;28;20658;-74
2022/05/06 13:15:45;;;;;;;2.65;1.75;;;23.20;89.80;;;;;;5063455;28;20199;-75
2022/05/06 13:18:11;;;;;;;4.35;1.90;;;23.40;90.30;;;;;;5062314;28;20218;-72
2022/05/06 13:20:36;;;;;;;2.10;1.90;;;23.40;90.20;;;;;;5063198;28;20214;-78
2022/05/06 13:23:02;;;;;;;4.47;2.30;;;23.20;89.40;;;;;;5064072;28;20215;-75
2022/05/06 13:25:28;;;;;;;5.18;2.65;;;23.20;89.80;;;;;;5066514;28;20688;-76
2022/05/06 13:27:54;;;;;;;4.95;2.03;;;23.20;89.40;;;;;;5055344;28;20203;-75
2022/05/06 13:30:19;;;;;;;3.47;1.80;;;23.30;89.00;;;;;;5075397;28;20207;-80
2022/05/06 13:32:45;;;;;;;2.78;1.90;;;23.50;88.80;;;;;;5056530;28;20331;-75
2022/05/06 13:35:11;;;;;;;3.85;2.10;;;23.50;88.80;;;;;;5068241;28;20207;-76